sensor_id;sensor_type;location;lat;lon;timestamp;P1;durP1;ratioP1;P2;durP2;ratioP2
55372;SDS011;41249;47.838;16.490;2023-04-16T00:01:49;1363.70;;;753.22;;
55372;SDS011;41249;47.838;16.490;2023-04-16T00:04:15;1326.20;;;710.42;;
55372;SDS011;41249;47.838;16.490;2023-04-16T00:06:42;1344.82;;;812.08;;
55372;SDS011;41249;47.838;16.490;2023-04-16T00:09:09;1325.40;;;681.95;;
55372;SDS011;41249;47.838;16.490;2023-04-16T00:11:36;1349.75;;;874.88;;
55372;SDS011;41249;47.838;16.490;2023-04-16T00:14:02;1362.45;;;792.63;;
55372;SDS011;41249;47.838;16.490;2023-04-16T00:16:29;1367.05;;;875.53;;
55372;SDS011;41249;47.838;16.490;2023-04-16T00:18:56;1347.13;;;852.08;;
55372;SDS011;41249;47.838;16.490;2023-04-16T00:21:23;1327.70;;;803.67;;
55372;SDS011;41249;47.838;16.490;2023-04-16T00:23:49;1431.68;;;918.63;;
55372;SDS011;41249;47.838;16.490;2023-04-16T00:26:16;1437.63;;;942.03;;
55372;SDS011;41249;47.838;16.490;2023-04-16T00:28:42;1392.07;;;903.10;;
55372;SDS011;41249;47.838;16.490;2023-04-16T00:31:09;1419.13;;;929.83;;
55372;SDS011;41249;47.838;16.490;2023-04-16T00:33:36;1377.78;;;885.70;;
55372;SDS011;41249;47.838;16.490;2023-04-16T00:36:02;1405.18;;;909.45;;
55372;SDS011;41249;47.838;16.490;2023-04-16T00:38:29;1418.80;;;924.22;;
55372;SDS011;41249;47.838;16.490;2023-04-16T00:40:57;1348.13;;;862.38;;
55372;SDS011;41249;47.838;16.490;2023-04-16T00:43:24;1333.93;;;873.15;;
55372;SDS011;41249;47.838;16.490;2023-04-16T00:45:52;1295.20;;;737.30;;
55372;SDS011;41249;47.838;16.490;2023-04-16T00:48:21;1264.38;;;675.83;;
55372;SDS011;41249;47.838;16.490;2023-04-16T00:50:48;1261.55;;;566.20;;
55372;SDS011;41249;47.838;16.490;2023-04-16T00:53:15;1251.85;;;375.45;;
55372;SDS011;41249;47.838;16.490;2023-04-16T00:55:41;1294.13;;;344.00;;
55372;SDS011;41249;47.838;16.490;2023-04-16T00:58:08;1127.28;;;257.67;;
55372;SDS011;41249;47.838;16.490;2023-04-16T01:00:35;785.90;;;194.00;;
55372;SDS011;41249;47.838;16.490;2023-04-16T01:03:02;1122.65;;;274.25;;
55372;SDS011;41249;47.838;16.490;2023-04-16T01:05:30;1264.93;;;357.98;;
55372;SDS011;41249;47.838;16.490;2023-04-16T01:07:57;1313.13;;;436.98;;
55372;SDS011;41249;47.838;16.490;2023-04-16T01:10:26;1194.78;;;469.83;;
55372;SDS011;41249;47.838;16.490;2023-04-16T01:12:52;1244.20;;;320.65;;
55372;SDS011;41249;47.838;16.490;2023-04-16T01:15:19;1202.63;;;286.90;;
55372;SDS011;41249;47.838;16.490;2023-04-16T01:17:46;1022.00;;;244.55;;
55372;SDS011;41249;47.838;16.490;2023-04-16T01:20:13;985.22;;;213.20;;
55372;SDS011;41249;47.838;16.490;2023-04-16T01:22:40;585.17;;;141.75;;
55372;SDS011;41249;47.838;16.490;2023-04-16T01:25:06;573.70;;;139.13;;
55372;SDS011;41249;47.838;16.490;2023-04-16T01:27:33;564.13;;;136.13;;
55372;SDS011;41249;47.838;16.490;2023-04-16T01:29:59;562.20;;;133.63;;
55372;SDS011;41249;47.838;16.490;2023-04-16T01:32:26;559.60;;;135.00;;
55372;SDS011;41249;47.838;16.490;2023-04-16T01:34:52;553.42;;;137.10;;
55372;SDS011;41249;47.838;16.490;2023-04-16T01:37:19;552.72;;;134.23;;
55372;SDS011;41249;47.838;16.490;2023-04-16T01:39:45;554.17;;;136.10;;
55372;SDS011;41249;47.838;16.490;2023-04-16T01:42:12;551.88;;;136.60;;
55372;SDS011;41249;47.838;16.490;2023-04-16T01:44:39;550.22;;;136.85;;
55372;SDS011;41249;47.838;16.490;2023-04-16T01:47:05;550.13;;;137.02;;
55372;SDS011;41249;47.838;16.490;2023-04-16T01:49:32;545.38;;;134.80;;
55372;SDS011;41249;47.838;16.490;2023-04-16T01:51:59;547.58;;;137.23;;
55372;SDS011;41249;47.838;16.490;2023-04-16T01:54:26;546.17;;;136.95;;
55372;SDS011;41249;47.838;16.490;2023-04-16T01:56:52;545.45;;;138.25;;
55372;SDS011;41249;47.838;16.490;2023-04-16T01:59:19;541.53;;;139.38;;
55372;SDS011;41249;47.838;16.490;2023-04-16T02:01:45;538.45;;;140.43;;
55372;SDS011;41249;47.838;16.490;2023-04-16T02:04:12;535.00;;;141.23;;
55372;SDS011;41249;47.838;16.490;2023-04-16T02:06:39;533.10;;;141.88;;
55372;SDS011;41249;47.838;16.490;2023-04-16T02:09:06;528.25;;;142.52;;
55372;SDS011;41249;47.838;16.490;2023-04-16T02:11:33;527.20;;;142.38;;
55372;SDS011;41249;47.838;16.490;2023-04-16T02:13:59;521.65;;;143.25;;
55372;SDS011;41249;47.838;16.490;2023-04-16T02:16:26;525.05;;;143.70;;
55372;SDS011;41249;47.838;16.490;2023-04-16T02:18:52;522.67;;;143.05;;
55372;SDS011;41249;47.838;16.490;2023-04-16T02:21:19;523.55;;;143.55;;
55372;SDS011;41249;47.838;16.490;2023-04-16T02:23:46;521.70;;;144.25;;
55372;SDS011;41249;47.838;16.490;2023-04-16T02:26:16;512.45;;;142.43;;
55372;SDS011;41249;47.838;16.490;2023-04-16T02:28:43;513.10;;;144.35;;
55372;SDS011;41249;47.838;16.490;2023-04-16T02:31:09;512.03;;;144.63;;
55372;SDS011;41249;47.838;16.490;2023-04-16T02:33:36;508.63;;;144.93;;
55372;SDS011;41249;47.838;16.490;2023-04-16T02:36:03;509.35;;;146.48;;
55372;SDS011;41249;47.838;16.490;2023-04-16T02:38:29;508.10;;;144.18;;
55372;SDS011;41249;47.838;16.490;2023-04-16T02:40:56;502.90;;;144.73;;
55372;SDS011;41249;47.838;16.490;2023-04-16T02:43:22;510.65;;;156.10;;
55372;SDS011;41249;47.838;16.490;2023-04-16T02:45:49;499.13;;;142.30;;
55372;SDS011;41249;47.838;16.490;2023-04-16T02:48:16;498.10;;;141.60;;
55372;SDS011;41249;47.838;16.490;2023-04-16T02:50:42;488.20;;;132.27;;
55372;SDS011;41249;47.838;16.490;2023-04-16T02:53:09;488.60;;;127.95;;
55372;SDS011;41249;47.838;16.490;2023-04-16T02:55:35;485.55;;;128.40;;
55372;SDS011;41249;47.838;16.490;2023-04-16T02:58:02;485.45;;;129.63;;
55372;SDS011;41249;47.838;16.490;2023-04-16T03:00:29;489.50;;;130.73;;
55372;SDS011;41249;47.838;16.490;2023-04-16T03:02:55;480.88;;;126.13;;
55372;SDS011;41249;47.838;16.490;2023-04-16T03:05:22;477.45;;;121.93;;
55372;SDS011;41249;47.838;16.490;2023-04-16T03:07:49;473.65;;;115.50;;
55372;SDS011;41249;47.838;16.490;2023-04-16T03:10:21;480.40;;;123.45;;
55372;SDS011;41249;47.838;16.490;2023-04-16T03:12:48;474.25;;;116.88;;
55372;SDS011;41249;47.838;16.490;2023-04-16T03:15:15;470.33;;;112.13;;
55372;SDS011;41249;47.838;16.490;2023-04-16T03:17:42;470.08;;;110.57;;
55372;SDS011;41249;47.838;16.490;2023-04-16T03:20:09;472.38;;;113.35;;
55372;SDS011;41249;47.838;16.490;2023-04-16T03:22:36;472.52;;;114.72;;
55372;SDS011;41249;47.838;16.490;2023-04-16T03:25:06;470.02;;;109.95;;
55372;SDS011;41249;47.838;16.490;2023-04-16T03:27:33;468.45;;;106.57;;
55372;SDS011;41249;47.838;16.490;2023-04-16T03:30:00;462.88;;;101.18;;
55372;SDS011;41249;47.838;16.490;2023-04-16T03:32:27;459.52;;;96.80;;
55372;SDS011;41249;47.838;16.490;2023-04-16T03:34:54;459.63;;;93.20;;
55372;SDS011;41249;47.838;16.490;2023-04-16T03:37:20;453.83;;;85.05;;
55372;SDS011;41249;47.838;16.490;2023-04-16T03:39:47;457.40;;;88.10;;
55372;SDS011;41249;47.838;16.490;2023-04-16T03:42:13;452.73;;;85.10;;
55372;SDS011;41249;47.838;16.490;2023-04-16T03:44:40;457.00;;;87.93;;
55372;SDS011;41249;47.838;16.490;2023-04-16T03:47:07;453.35;;;83.70;;
55372;SDS011;41249;47.838;16.490;2023-04-16T03:49:33;450.55;;;80.70;;
55372;SDS011;41249;47.838;16.490;2023-04-16T03:52:00;444.27;;;76.90;;
55372;SDS011;41249;47.838;16.490;2023-04-16T03:54:26;440.52;;;74.30;;
55372;SDS011;41249;47.838;16.490;2023-04-16T03:56:53;437.80;;;74.28;;
55372;SDS011;41249;47.838;16.490;2023-04-16T03:59:20;434.13;;;73.13;;
55372;SDS011;41249;47.838;16.490;2023-04-16T04:01:46;433.98;;;72.65;;
55372;SDS011;41249;47.838;16.490;2023-04-16T04:04:13;435.63;;;73.50;;
55372;SDS011;41249;47.838;16.490;2023-04-16T04:06:40;436.55;;;74.22;;
55372;SDS011;41249;47.838;16.490;2023-04-16T04:09:07;438.20;;;75.15;;
55372;SDS011;41249;47.838;16.490;2023-04-16T04:11:34;434.73;;;73.70;;
55372;SDS011;41249;47.838;16.490;2023-04-16T04:14:00;430.83;;;72.70;;
55372;SDS011;41249;47.838;16.490;2023-04-16T04:16:27;426.02;;;70.00;;
55372;SDS011;41249;47.838;16.490;2023-04-16T04:18:53;428.08;;;72.07;;
55372;SDS011;41249;47.838;16.490;2023-04-16T04:21:20;428.08;;;71.53;;
55372;SDS011;41249;47.838;16.490;2023-04-16T04:23:47;428.48;;;71.95;;
55372;SDS011;41249;47.838;16.490;2023-04-16T04:26:14;427.10;;;72.05;;
55372;SDS011;41249;47.838;16.490;2023-04-16T04:28:40;435.85;;;77.22;;
55372;SDS011;41249;47.838;16.490;2023-04-16T04:31:07;445.88;;;80.47;;
55372;SDS011;41249;47.838;16.490;2023-04-16T04:33:33;447.48;;;81.15;;
55372;SDS011;41249;47.838;16.490;2023-04-16T04:36:00;443.63;;;79.20;;
55372;SDS011;41249;47.838;16.490;2023-04-16T04:38:27;446.10;;;80.03;;
55372;SDS011;41249;47.838;16.490;2023-04-16T04:40:53;447.23;;;80.88;;
55372;SDS011;41249;47.838;16.490;2023-04-16T04:43:20;445.33;;;79.18;;
55372;SDS011;41249;47.838;16.490;2023-04-16T04:45:47;441.23;;;77.45;;
55372;SDS011;41249;47.838;16.490;2023-04-16T04:48:14;441.88;;;77.57;;
55372;SDS011;41249;47.838;16.490;2023-04-16T04:50:41;437.08;;;75.32;;
55372;SDS011;41249;47.838;16.490;2023-04-16T04:53:09;427.48;;;70.93;;
55372;SDS011;41249;47.838;16.490;2023-04-16T04:55:36;431.10;;;76.53;;
55372;SDS011;41249;47.838;16.490;2023-04-16T04:58:03;426.58;;;71.10;;
55372;SDS011;41249;47.838;16.490;2023-04-16T05:00:31;426.65;;;71.65;;
55372;SDS011;41249;47.838;16.490;2023-04-16T05:03:02;429.05;;;72.70;;
55372;SDS011;41249;47.838;16.490;2023-04-16T05:05:30;424.30;;;69.93;;
55372;SDS011;41249;47.838;16.490;2023-04-16T05:07:57;422.73;;;69.07;;
55372;SDS011;41249;47.838;16.490;2023-04-16T05:10:23;421.60;;;68.90;;
55372;SDS011;41249;47.838;16.490;2023-04-16T05:12:50;419.92;;;68.28;;
55372;SDS011;41249;47.838;16.490;2023-04-16T05:15:16;422.75;;;69.28;;
55372;SDS011;41249;47.838;16.490;2023-04-16T05:17:43;421.48;;;68.75;;
55372;SDS011;41249;47.838;16.490;2023-04-16T05:20:10;421.08;;;68.72;;
55372;SDS011;41249;47.838;16.490;2023-04-16T05:22:36;418.95;;;67.97;;
55372;SDS011;41249;47.838;16.490;2023-04-16T05:25:03;421.48;;;68.53;;
55372;SDS011;41249;47.838;16.490;2023-04-16T05:27:30;420.08;;;67.72;;
55372;SDS011;41249;47.838;16.490;2023-04-16T05:29:57;418.63;;;66.97;;
55372;SDS011;41249;47.838;16.490;2023-04-16T05:32:24;422.10;;;68.18;;
55372;SDS011;41249;47.838;16.490;2023-04-16T05:34:52;420.38;;;67.43;;
55372;SDS011;41249;47.838;16.490;2023-04-16T05:37:19;419.63;;;66.80;;
55372;SDS011;41249;47.838;16.490;2023-04-16T05:39:46;418.67;;;66.50;;
55372;SDS011;41249;47.838;16.490;2023-04-16T05:42:12;412.80;;;63.70;;
55372;SDS011;41249;47.838;16.490;2023-04-16T05:44:39;405.80;;;60.78;;
55372;SDS011;41249;47.838;16.490;2023-04-16T05:47:05;413.00;;;63.45;;
55372;SDS011;41249;47.838;16.490;2023-04-16T05:49:34;412.05;;;63.40;;
55372;SDS011;41249;47.838;16.490;2023-04-16T05:52:02;412.27;;;63.78;;
55372;SDS011;41249;47.838;16.490;2023-04-16T05:54:30;408.00;;;61.72;;
55372;SDS011;41249;47.838;16.490;2023-04-16T05:56:57;406.45;;;60.83;;
55372;SDS011;41249;47.838;16.490;2023-04-16T05:59:24;403.05;;;59.60;;
55372;SDS011;41249;47.838;16.490;2023-04-16T06:01:51;401.98;;;59.58;;
55372;SDS011;41249;47.838;16.490;2023-04-16T06:04:18;400.67;;;59.00;;
55372;SDS011;41249;47.838;16.490;2023-04-16T06:06:44;398.85;;;57.70;;
55372;SDS011;41249;47.838;16.490;2023-04-16T06:09:11;399.17;;;57.67;;
55372;SDS011;41249;47.838;16.490;2023-04-16T06:11:38;398.00;;;56.92;;
55372;SDS011;41249;47.838;16.490;2023-04-16T06:14:04;399.25;;;57.22;;
55372;SDS011;41249;47.838;16.490;2023-04-16T06:16:31;395.92;;;56.10;;
55372;SDS011;41249;47.838;16.490;2023-04-16T06:18:58;393.00;;;54.45;;
55372;SDS011;41249;47.838;16.490;2023-04-16T06:21:24;393.88;;;54.40;;
55372;SDS011;41249;47.838;16.490;2023-04-16T06:23:51;391.75;;;54.30;;
55372;SDS011;41249;47.838;16.490;2023-04-16T06:26:20;385.73;;;51.85;;
55372;SDS011;41249;47.838;16.490;2023-04-16T06:28:46;386.15;;;51.58;;
55372;SDS011;41249;47.838;16.490;2023-04-16T06:31:13;389.85;;;52.88;;
55372;SDS011;41249;47.838;16.490;2023-04-16T06:33:40;384.02;;;51.20;;
55372;SDS011;41249;47.838;16.490;2023-04-16T06:36:06;392.40;;;55.47;;
55372;SDS011;41249;47.838;16.490;2023-04-16T06:38:33;403.67;;;57.30;;
55372;SDS011;41249;47.838;16.490;2023-04-16T06:41:01;397.77;;;54.92;;
55372;SDS011;41249;47.838;16.490;2023-04-16T06:43:27;398.73;;;56.13;;
55372;SDS011;41249;47.838;16.490;2023-04-16T06:45:55;400.75;;;57.17;;
55372;SDS011;41249;47.838;16.490;2023-04-16T06:48:21;397.35;;;54.80;;
55372;SDS011;41249;47.838;16.490;2023-04-16T06:50:48;403.77;;;57.53;;
55372;SDS011;41249;47.838;16.490;2023-04-16T06:53:15;398.45;;;55.13;;
55372;SDS011;41249;47.838;16.490;2023-04-16T06:55:42;398.13;;;55.08;;
55372;SDS011;41249;47.838;16.490;2023-04-16T06:58:08;397.85;;;55.45;;
55372;SDS011;41249;47.838;16.490;2023-04-16T07:00:35;399.88;;;54.60;;
55372;SDS011;41249;47.838;16.490;2023-04-16T07:03:01;398.63;;;54.50;;
55372;SDS011;41249;47.838;16.490;2023-04-16T07:05:28;399.17;;;54.85;;
55372;SDS011;41249;47.838;16.490;2023-04-16T07:07:55;408.00;;;61.25;;
55372;SDS011;41249;47.838;16.490;2023-04-16T07:10:22;404.15;;;55.85;;
55372;SDS011;41249;47.838;16.490;2023-04-16T07:12:49;403.23;;;56.10;;
55372;SDS011;41249;47.838;16.490;2023-04-16T07:15:16;408.70;;;57.17;;
55372;SDS011;41249;47.838;16.490;2023-04-16T07:17:42;412.08;;;58.03;;
55372;SDS011;41249;47.838;16.490;2023-04-16T07:20:09;405.90;;;55.75;;
55372;SDS011;41249;47.838;16.490;2023-04-16T07:22:36;405.90;;;56.97;;
55372;SDS011;41249;47.838;16.490;2023-04-16T07:25:03;405.80;;;57.40;;
55372;SDS011;41249;47.838;16.490;2023-04-16T07:27:29;401.50;;;54.80;;
55372;SDS011;41249;47.838;16.490;2023-04-16T07:29:56;396.10;;;53.13;;
55372;SDS011;41249;47.838;16.490;2023-04-16T07:32:23;397.30;;;53.75;;
55372;SDS011;41249;47.838;16.490;2023-04-16T07:34:50;397.70;;;53.92;;
55372;SDS011;41249;47.838;16.490;2023-04-16T07:37:17;397.25;;;53.65;;
55372;SDS011;41249;47.838;16.490;2023-04-16T07:39:43;397.48;;;53.30;;
55372;SDS011;41249;47.838;16.490;2023-04-16T07:42:10;396.60;;;53.00;;
55372;SDS011;41249;47.838;16.490;2023-04-16T07:44:37;399.02;;;54.03;;
55372;SDS011;41249;47.838;16.490;2023-04-16T07:47:04;397.48;;;55.03;;
55372;SDS011;41249;47.838;16.490;2023-04-16T07:49:31;396.75;;;53.58;;
55372;SDS011;41249;47.838;16.490;2023-04-16T07:51:57;390.85;;;51.28;;
55372;SDS011;41249;47.838;16.490;2023-04-16T07:54:24;386.35;;;50.67;;
55372;SDS011;41249;47.838;16.490;2023-04-16T07:56:54;385.80;;;49.85;;
55372;SDS011;41249;47.838;16.490;2023-04-16T07:59:20;383.35;;;49.72;;
55372;SDS011;41249;47.838;16.490;2023-04-16T08:01:50;384.65;;;49.78;;
55372;SDS011;41249;47.838;16.490;2023-04-16T08:04:19;384.48;;;49.72;;
55372;SDS011;41249;47.838;16.490;2023-04-16T08:06:50;387.00;;;50.33;;
55372;SDS011;41249;47.838;16.490;2023-04-16T08:09:18;385.33;;;50.25;;
55372;SDS011;41249;47.838;16.490;2023-04-16T08:11:46;386.25;;;50.30;;
55372;SDS011;41249;47.838;16.490;2023-04-16T08:14:17;384.60;;;49.78;;
55372;SDS011;41249;47.838;16.490;2023-04-16T08:16:44;385.33;;;50.13;;
55372;SDS011;41249;47.838;16.490;2023-04-16T08:19:10;383.27;;;49.67;;
55372;SDS011;41249;47.838;16.490;2023-04-16T08:21:37;384.23;;;49.88;;
55372;SDS011;41249;47.838;16.490;2023-04-16T08:24:04;382.65;;;50.25;;
55372;SDS011;41249;47.838;16.490;2023-04-16T08:26:31;380.80;;;49.40;;
55372;SDS011;41249;47.838;16.490;2023-04-16T08:28:58;384.10;;;49.70;;
55372;SDS011;41249;47.838;16.490;2023-04-16T08:31:24;386.33;;;50.35;;
55372;SDS011;41249;47.838;16.490;2023-04-16T08:33:51;386.23;;;50.67;;
55372;SDS011;41249;47.838;16.490;2023-04-16T08:36:18;386.92;;;50.55;;
55372;SDS011;41249;47.838;16.490;2023-04-16T08:38:44;388.45;;;50.67;;
55372;SDS011;41249;47.838;16.490;2023-04-16T08:41:11;388.10;;;50.50;;
55372;SDS011;41249;47.838;16.490;2023-04-16T08:43:41;390.67;;;51.67;;
55372;SDS011;41249;47.838;16.490;2023-04-16T08:46:10;390.10;;;50.45;;
55372;SDS011;41249;47.838;16.490;2023-04-16T08:48:37;389.15;;;49.72;;
55372;SDS011;41249;47.838;16.490;2023-04-16T08:51:08;388.33;;;50.17;;
55372;SDS011;41249;47.838;16.490;2023-04-16T08:53:42;387.13;;;49.40;;
55372;SDS011;41249;47.838;16.490;2023-04-16T08:56:19;387.02;;;49.70;;
55372;SDS011;41249;47.838;16.490;2023-04-16T08:58:49;387.02;;;50.00;;
55372;SDS011;41249;47.838;16.490;2023-04-16T09:01:17;385.65;;;49.63;;
55372;SDS011;41249;47.838;16.490;2023-04-16T09:03:47;388.13;;;51.92;;
55372;SDS011;41249;47.838;16.490;2023-04-16T09:06:15;386.13;;;49.47;;
55372;SDS011;41249;47.838;16.490;2023-04-16T09:08:44;383.95;;;48.95;;
55372;SDS011;41249;47.838;16.490;2023-04-16T09:11:16;382.40;;;48.83;;
55372;SDS011;41249;47.838;16.490;2023-04-16T09:13:43;384.40;;;49.80;;
55372;SDS011;41249;47.838;16.490;2023-04-16T09:16:11;387.55;;;50.22;;
55372;SDS011;41249;47.838;16.490;2023-04-16T09:18:39;394.75;;;52.40;;
55372;SDS011;41249;47.838;16.490;2023-04-16T09:21:08;393.02;;;51.03;;
55372;SDS011;41249;47.838;16.490;2023-04-16T09:23:36;400.10;;;52.53;;
55372;SDS011;41249;47.838;16.490;2023-04-16T09:26:04;396.65;;;51.25;;
55372;SDS011;41249;47.838;16.490;2023-04-16T09:29:05;480.20;;;96.97;;
55372;SDS011;41249;47.838;16.490;2023-04-16T09:31:24;478.35;;;91.90;;
55372;SDS011;41249;47.838;16.490;2023-04-16T09:34:00;479.92;;;96.32;;
55372;SDS011;41249;47.838;16.490;2023-04-16T09:36:30;478.08;;;91.10;;
55372;SDS011;41249;47.838;16.490;2023-04-16T09:38:58;473.13;;;85.55;;
55372;SDS011;41249;47.838;16.490;2023-04-16T09:41:29;469.88;;;81.30;;
55372;SDS011;41249;47.838;16.490;2023-04-16T09:44:04;468.38;;;80.93;;
55372;SDS011;41249;47.838;16.490;2023-04-16T09:46:34;470.58;;;82.45;;
55372;SDS011;41249;47.838;16.490;2023-04-16T09:49:15;470.98;;;81.82;;
55372;SDS011;41249;47.838;16.490;2023-04-16T09:51:44;467.27;;;80.07;;
55372;SDS011;41249;47.838;16.490;2023-04-16T09:54:12;467.75;;;79.88;;
55372;SDS011;41249;47.838;16.490;2023-04-16T09:56:40;471.42;;;83.00;;
55372;SDS011;41249;47.838;16.490;2023-04-16T09:59:07;466.60;;;79.15;;
55372;SDS011;41249;47.838;16.490;2023-04-16T10:01:41;465.45;;;80.18;;
55372;SDS011;41249;47.838;16.490;2023-04-16T10:04:08;464.45;;;77.93;;
55372;SDS011;41249;47.838;16.490;2023-04-16T10:06:35;465.50;;;79.53;;
55372;SDS011;41249;47.838;16.490;2023-04-16T10:09:04;464.23;;;78.32;;
55372;SDS011;41249;47.838;16.490;2023-04-16T10:11:33;468.80;;;80.65;;
55372;SDS011;41249;47.838;16.490;2023-04-16T10:14:00;468.75;;;81.88;;
55372;SDS011;41249;47.838;16.490;2023-04-16T10:16:27;466.50;;;79.03;;
55372;SDS011;41249;47.838;16.490;2023-04-16T10:18:54;464.50;;;78.03;;
55372;SDS011;41249;47.838;16.490;2023-04-16T10:21:21;459.50;;;75.95;;
55372;SDS011;41249;47.838;16.490;2023-04-16T10:23:49;461.05;;;76.82;;
55372;SDS011;41249;47.838;16.490;2023-04-16T10:26:17;459.25;;;76.05;;
55372;SDS011;41249;47.838;16.490;2023-04-16T10:28:44;460.98;;;76.53;;
55372;SDS011;41249;47.838;16.490;2023-04-16T10:31:11;459.77;;;75.93;;
55372;SDS011;41249;47.838;16.490;2023-04-16T10:33:39;456.52;;;74.70;;
55372;SDS011;41249;47.838;16.490;2023-04-16T10:36:07;451.23;;;74.05;;
55372;SDS011;41249;47.838;16.490;2023-04-16T10:41:11;449.85;;;72.35;;
55372;SDS011;41249;47.838;16.490;2023-04-16T10:43:48;446.10;;;70.35;;
55372;SDS011;41249;47.838;16.490;2023-04-16T10:46:26;448.45;;;71.20;;
55372;SDS011;41249;47.838;16.490;2023-04-16T10:49:01;450.17;;;72.03;;
55372;SDS011;41249;47.838;16.490;2023-04-16T10:51:29;448.95;;;71.50;;
55372;SDS011;41249;47.838;16.490;2023-04-16T10:54:41;442.65;;;68.28;;
55372;SDS011;41249;47.838;16.490;2023-04-16T10:56:55;443.02;;;67.78;;
55372;SDS011;41249;47.838;16.490;2023-04-16T10:59:30;443.58;;;67.88;;
55372;SDS011;41249;47.838;16.490;2023-04-16T11:02:00;442.13;;;67.38;;
55372;SDS011;41249;47.838;16.490;2023-04-16T11:04:34;435.05;;;62.80;;
55372;SDS011;41249;47.838;16.490;2023-04-16T11:09:44;430.67;;;61.20;;
55372;SDS011;41249;47.838;16.490;2023-04-16T11:12:41;427.15;;;59.30;;
55372;SDS011;41249;47.838;16.490;2023-04-16T11:15:15;431.60;;;61.55;;
55372;SDS011;41249;47.838;16.490;2023-04-16T11:17:45;429.65;;;63.53;;
55372;SDS011;41249;47.838;16.490;2023-04-16T11:22:49;420.45;;;56.28;;
55372;SDS011;41249;47.838;16.490;2023-04-16T11:25:29;416.70;;;54.63;;
55372;SDS011;41249;47.838;16.490;2023-04-16T11:27:57;418.70;;;55.53;;
55372;SDS011;41249;47.838;16.490;2023-04-16T11:30:27;416.67;;;53.85;;
55372;SDS011;41249;47.838;16.490;2023-04-16T11:33:02;418.90;;;55.95;;
55372;SDS011;41249;47.838;16.490;2023-04-16T11:35:37;412.15;;;53.30;;
55372;SDS011;41249;47.838;16.490;2023-04-16T11:38:08;411.95;;;53.65;;
55372;SDS011;41249;47.838;16.490;2023-04-16T11:40:35;409.50;;;51.90;;
55372;SDS011;41249;47.838;16.490;2023-04-16T11:43:02;407.45;;;51.20;;
55372;SDS011;41249;47.838;16.490;2023-04-16T11:45:37;406.60;;;51.35;;
55372;SDS011;41249;47.838;16.490;2023-04-16T11:48:18;399.88;;;50.10;;
55372;SDS011;41249;47.838;16.490;2023-04-16T11:50:45;396.02;;;49.70;;
55372;SDS011;41249;47.838;16.490;2023-04-16T11:53:21;393.45;;;49.65;;
55372;SDS011;41249;47.838;16.490;2023-04-16T11:55:47;394.20;;;50.45;;
55372;SDS011;41249;47.838;16.490;2023-04-16T11:58:14;392.77;;;49.65;;
55372;SDS011;41249;47.838;16.490;2023-04-16T12:00:42;389.48;;;49.90;;
55372;SDS011;41249;47.838;16.490;2023-04-16T12:03:08;389.02;;;49.92;;
55372;SDS011;41249;47.838;16.490;2023-04-16T12:05:36;391.20;;;50.63;;
55372;SDS011;41249;47.838;16.490;2023-04-16T12:08:05;386.67;;;49.45;;
55372;SDS011;41249;47.838;16.490;2023-04-16T12:10:36;383.80;;;49.13;;
55372;SDS011;41249;47.838;16.490;2023-04-16T12:13:10;383.85;;;50.45;;
55372;SDS011;41249;47.838;16.490;2023-04-16T12:15:53;383.92;;;49.05;;
55372;SDS011;41249;47.838;16.490;2023-04-16T12:18:24;381.90;;;49.10;;
55372;SDS011;41249;47.838;16.490;2023-04-16T12:20:52;378.02;;;49.00;;
55372;SDS011;41249;47.838;16.490;2023-04-16T12:23:23;377.60;;;49.30;;
55372;SDS011;41249;47.838;16.490;2023-04-16T12:25:49;380.38;;;48.85;;
55372;SDS011;41249;47.838;16.490;2023-04-16T12:28:35;384.00;;;50.05;;
55372;SDS011;41249;47.838;16.490;2023-04-16T12:31:06;385.63;;;49.85;;
55372;SDS011;41249;47.838;16.490;2023-04-16T12:33:33;381.70;;;49.25;;
55372;SDS011;41249;47.838;16.490;2023-04-16T12:36:00;383.50;;;49.35;;
55372;SDS011;41249;47.838;16.490;2023-04-16T12:38:28;381.38;;;49.45;;
55372;SDS011;41249;47.838;16.490;2023-04-16T12:40:55;389.45;;;49.35;;
55372;SDS011;41249;47.838;16.490;2023-04-16T12:43:23;390.27;;;50.03;;
55372;SDS011;41249;47.838;16.490;2023-04-16T12:45:50;392.55;;;50.25;;
55372;SDS011;41249;47.838;16.490;2023-04-16T12:48:16;390.67;;;50.22;;
55372;SDS011;41249;47.838;16.490;2023-04-16T12:50:43;388.17;;;49.88;;
55372;SDS011;41249;47.838;16.490;2023-04-16T12:53:10;389.38;;;50.03;;
55372;SDS011;41249;47.838;16.490;2023-04-16T12:55:37;388.35;;;49.53;;
55372;SDS011;41249;47.838;16.490;2023-04-16T12:58:03;390.45;;;50.92;;
55372;SDS011;41249;47.838;16.490;2023-04-16T13:00:30;387.63;;;50.25;;
55372;SDS011;41249;47.838;16.490;2023-04-16T13:02:57;384.35;;;49.97;;
55372;SDS011;41249;47.838;16.490;2023-04-16T13:05:24;386.05;;;51.17;;
55372;SDS011;41249;47.838;16.490;2023-04-16T13:07:50;384.33;;;50.20;;
55372;SDS011;41249;47.838;16.490;2023-04-16T13:10:19;383.23;;;49.22;;
55372;SDS011;41249;47.838;16.490;2023-04-16T13:12:46;384.25;;;49.10;;
55372;SDS011;41249;47.838;16.490;2023-04-16T13:15:12;382.60;;;49.38;;
55372;SDS011;41249;47.838;16.490;2023-04-16T13:17:39;380.83;;;49.17;;
55372;SDS011;41249;47.838;16.490;2023-04-16T13:20:06;382.48;;;50.88;;
55372;SDS011;41249;47.838;16.490;2023-04-16T13:22:33;381.83;;;49.95;;
55372;SDS011;41249;47.838;16.490;2023-04-16T13:24:59;379.33;;;49.00;;
55372;SDS011;41249;47.838;16.490;2023-04-16T13:27:26;378.92;;;49.63;;
55372;SDS011;41249;47.838;16.490;2023-04-16T13:29:52;377.20;;;49.00;;
55372;SDS011;41249;47.838;16.490;2023-04-16T13:32:19;376.17;;;48.95;;
55372;SDS011;41249;47.838;16.490;2023-04-16T13:34:46;376.10;;;49.03;;
55372;SDS011;41249;47.838;16.490;2023-04-16T13:37:12;379.55;;;49.65;;
55372;SDS011;41249;47.838;16.490;2023-04-16T13:39:39;380.45;;;48.90;;
55372;SDS011;41249;47.838;16.490;2023-04-16T13:42:06;383.27;;;50.30;;
55372;SDS011;41249;47.838;16.490;2023-04-16T13:44:32;382.00;;;50.20;;
55372;SDS011;41249;47.838;16.490;2023-04-16T13:46:59;381.38;;;49.00;;
55372;SDS011;41249;47.838;16.490;2023-04-16T13:49:26;383.55;;;50.25;;
55372;SDS011;41249;47.838;16.490;2023-04-16T13:51:52;380.63;;;49.50;;
55372;SDS011;41249;47.838;16.490;2023-04-16T13:54:19;382.27;;;50.33;;
55372;SDS011;41249;47.838;16.490;2023-04-16T13:56:45;377.90;;;48.67;;
55372;SDS011;41249;47.838;16.490;2023-04-16T13:59:12;375.35;;;48.70;;
55372;SDS011;41249;47.838;16.490;2023-04-16T14:01:40;376.08;;;50.78;;
55372;SDS011;41249;47.838;16.490;2023-04-16T14:04:07;375.50;;;48.83;;
55372;SDS011;41249;47.838;16.490;2023-04-16T14:06:34;377.77;;;49.80;;